sensor_id;sensor_type;location;lat;lon;timestamp;temperature;humidity
23671;DHT22;12012;51.998;7.614;2023-03-12T00:01:26;1.70;1.00
23671;DHT22;12012;51.998;7.614;2023-03-12T00:03:54;1.80;1.00
23671;DHT22;12012;51.998;7.614;2023-03-12T00:06:20;1.70;1.00
23671;DHT22;12012;51.998;7.614;2023-03-12T00:08:47;1.70;1.00
23671;DHT22;12012;51.998;7.614;2023-03-12T00:11:16;1.70;1.00
23671;DHT22;12012;51.998;7.614;2023-03-12T00:13:42;1.70;1.00
23671;DHT22;12012;51.998;7.614;2023-03-12T00:16:13;1.80;1.00
23671;DHT22;12012;51.998;7.614;2023-03-12T00:18:40;1.70;1.00
23671;DHT22;12012;51.998;7.614;2023-03-12T00:21:06;1.70;1.00
23671;DHT22;12012;51.998;7.614;2023-03-12T00:23:32;1.70;1.00
23671;DHT22;12012;51.998;7.614;2023-03-12T00:26:09;1.70;1.00
23671;DHT22;12012;51.998;7.614;2023-03-12T00:28:36;1.70;1.00
23671;DHT22;12012;51.998;7.614;2023-03-12T00:31:03;1.70;1.00
23671;DHT22;12012;51.998;7.614;2023-03-12T00:33:29;1.70;1.00
23671;DHT22;12012;51.998;7.614;2023-03-12T00:35:55;1.70;1.00
23671;DHT22;12012;51.998;7.614;2023-03-12T00:38:21;1.80;1.00
23671;DHT22;12012;51.998;7.614;2023-03-12T00:40:46;1.80;1.00
23671;DHT22;12012;51.998;7.614;2023-03-12T00:43:13;1.80;1.00
23671;DHT22;12012;51.998;7.614;2023-03-12T00:45:38;1.80;1.00
23671;DHT22;12012;51.998;7.614;2023-03-12T00:48:04;1.80;1.00
23671;DHT22;12012;51.998;7.614;2023-03-12T00:50:29;1.80;1.00
23671;DHT22;12012;51.998;7.614;2023-03-12T00:52:55;1.80;1.00
23671;DHT22;12012;51.998;7.614;2023-03-12T00:55:21;1.80;1.00
23671;DHT22;12012;51.998;7.614;2023-03-12T00:57:47;1.80;1.00
23671;DHT22;12012;51.998;7.614;2023-03-12T01:00:13;1.80;1.00
23671;DHT22;12012;51.998;7.614;2023-03-12T01:02:39;1.80;1.00
23671;DHT22;12012;51.998;7.614;2023-03-12T01:05:05;1.80;1.00
23671;DHT22;12012;51.998;7.614;2023-03-12T01:07:31;1.80;1.00
23671;DHT22;12012;51.998;7.614;2023-03-12T01:09:57;1.80;1.00
23671;DHT22;12012;51.998;7.614;2023-03-12T01:12:23;1.80;1.00
23671;DHT22;12012;51.998;7.614;2023-03-12T01:14:48;1.80;1.00
23671;DHT22;12012;51.998;7.614;2023-03-12T01:17:14;1.70;1.00
23671;DHT22;12012;51.998;7.614;2023-03-12T01:19:39;1.70;1.00
23671;DHT22;12012;51.998;7.614;2023-03-12T01:22:05;1.70;1.00
23671;DHT22;12012;51.998;7.614;2023-03-12T01:24:31;1.80;1.00
23671;DHT22;12012;51.998;7.614;2023-03-12T01:26:56;1.70;1.00
23671;DHT22;12012;51.998;7.614;2023-03-12T01:29:22;1.70;1.00
23671;DHT22;12012;51.998;7.614;2023-03-12T01:31:48;1.70;1.00
23671;DHT22;12012;51.998;7.614;2023-03-12T01:34:14;1.70;1.00
23671;DHT22;12012;51.998;7.614;2023-03-12T01:36:40;1.70;1.00
23671;DHT22;12012;51.998;7.614;2023-03-12T01:39:05;1.70;1.00
23671;DHT22;12012;51.998;7.614;2023-03-12T01:41:32;1.70;1.00
23671;DHT22;12012;51.998;7.614;2023-03-12T01:43:59;1.70;1.00
23671;DHT22;12012;51.998;7.614;2023-03-12T01:48:56;1.70;1.00
23671;DHT22;12012;51.998;7.614;2023-03-12T01:51:32;1.70;1.00
23671;DHT22;12012;51.998;7.614;2023-03-12T01:54:02;1.70;1.00
23671;DHT22;12012;51.998;7.614;2023-03-12T01:56:31;1.70;1.00
23671;DHT22;12012;51.998;7.614;2023-03-12T01:59:02;1.70;1.00
23671;DHT22;12012;51.998;7.614;2023-03-12T02:01:28;1.70;1.00
23671;DHT22;12012;51.998;7.614;2023-03-12T02:03:55;1.70;1.00
23671;DHT22;12012;51.998;7.614;2023-03-12T02:09:23;1.70;1.00
23671;DHT22;12012;51.998;7.614;2023-03-12T02:11:50;1.70;1.00
23671;DHT22;12012;51.998;7.614;2023-03-12T02:14:16;1.70;1.00
23671;DHT22;12012;51.998;7.614;2023-03-12T02:16:42;1.70;1.00
23671;DHT22;12012;51.998;7.614;2023-03-12T02:19:36;1.70;1.00
23671;DHT22;12012;51.998;7.614;2023-03-12T02:21:58;1.70;1.00
23671;DHT22;12012;51.998;7.614;2023-03-12T02:24:29;1.70;1.00
23671;DHT22;12012;51.998;7.614;2023-03-12T02:26:57;1.70;1.00
23671;DHT22;12012;51.998;7.614;2023-03-12T02:29:24;1.70;1.00
23671;DHT22;12012;51.998;7.614;2023-03-12T02:31:54;1.70;1.00
23671;DHT22;12012;51.998;7.614;2023-03-12T02:34:21;1.70;1.00
23671;DHT22;12012;51.998;7.614;2023-03-12T02:36:48;1.80;1.00
23671;DHT22;12012;51.998;7.614;2023-03-12T02:39:14;1.80;1.00
23671;DHT22;12012;51.998;7.614;2023-03-12T02:41:45;1.80;1.00
23671;DHT22;12012;51.998;7.614;2023-03-12T02:44:18;1.80;1.00
23671;DHT22;12012;51.998;7.614;2023-03-12T02:46:45;1.80;1.00
23671;DHT22;12012;51.998;7.614;2023-03-12T02:49:12;1.80;1.00
23671;DHT22;12012;51.998;7.614;2023-03-12T02:51:39;1.80;1.00
23671;DHT22;12012;51.998;7.614;2023-03-12T02:54:05;1.80;1.00
23671;DHT22;12012;51.998;7.614;2023-03-12T02:56:31;1.90;1.00
23671;DHT22;12012;51.998;7.614;2023-03-12T02:58:57;1.90;1.00
23671;DHT22;12012;51.998;7.614;2023-03-12T03:01:23;1.90;1.00
23671;DHT22;12012;51.998;7.614;2023-03-12T03:03:49;1.90;1.00
23671;DHT22;12012;51.998;7.614;2023-03-12T03:06:15;1.90;1.00
23671;DHT22;12012;51.998;7.614;2023-03-12T03:08:41;1.90;1.00
23671;DHT22;12012;51.998;7.614;2023-03-12T03:11:07;2.00;1.00
23671;DHT22;12012;51.998;7.614;2023-03-12T03:13:34;2.00;1.00
23671;DHT22;12012;51.998;7.614;2023-03-12T03:15:59;2.00;1.00
23671;DHT22;12012;51.998;7.614;2023-03-12T03:18:27;1.90;1.00
23671;DHT22;12012;51.998;7.614;2023-03-12T03:21:02;2.00;1.00
23671;DHT22;12012;51.998;7.614;2023-03-12T03:23:28;2.00;1.00
23671;DHT22;12012;51.998;7.614;2023-03-12T03:25:53;2.00;1.00
23671;DHT22;12012;51.998;7.614;2023-03-12T03:28:21;2.00;1.00
23671;DHT22;12012;51.998;7.614;2023-03-12T03:30:47;2.00;1.00
23671;DHT22;12012;51.998;7.614;2023-03-12T03:33:13;2.00;1.00
23671;DHT22;12012;51.998;7.614;2023-03-12T03:35:38;2.00;1.00
23671;DHT22;12012;51.998;7.614;2023-03-12T03:38:04;1.90;1.00
23671;DHT22;12012;51.998;7.614;2023-03-12T03:40:29;1.90;1.00
23671;DHT22;12012;51.998;7.614;2023-03-12T03:42:55;1.80;1.00
23671;DHT22;12012;51.998;7.614;2023-03-12T03:45:21;1.80;1.00
23671;DHT22;12012;51.998;7.614;2023-03-12T03:47:46;1.80;1.00
23671;DHT22;12012;51.998;7.614;2023-03-12T03:50:12;1.80;1.00
23671;DHT22;12012;51.998;7.614;2023-03-12T03:52:38;1.80;1.00
23671;DHT22;12012;51.998;7.614;2023-03-12T03:55:03;1.70;1.00
23671;DHT22;12012;51.998;7.614;2023-03-12T03:57:29;1.70;1.00
23671;DHT22;12012;51.998;7.614;2023-03-12T03:59:55;1.80;1.00
23671;DHT22;12012;51.998;7.614;2023-03-12T04:02:23;1.80;13.30
23671;DHT22;12012;51.998;7.614;2023-03-12T04:04:49;1.70;19.90
23671;DHT22;12012;51.998;7.614;2023-03-12T04:07:15;1.70;13.30
23671;DHT22;12012;51.998;7.614;2023-03-12T04:09:41;1.70;1.00
23671;DHT22;12012;51.998;7.614;2023-03-12T04:12:07;1.70;8.40
23671;DHT22;12012;51.998;7.614;2023-03-12T04:14:32;1.70;10.10
23671;DHT22;12012;51.998;7.614;2023-03-12T04:16:58;1.70;28.10
23671;DHT22;12012;51.998;7.614;2023-03-12T04:19:23;1.70;10.40
23671;DHT22;12012;51.998;7.614;2023-03-12T04:21:49;1.70;10.20
23671;DHT22;12012;51.998;7.614;2023-03-12T04:24:15;1.70;1.00
23671;DHT22;12012;51.998;7.614;2023-03-12T04:26:42;1.70;9.20
23671;DHT22;12012;51.998;7.614;2023-03-12T04:29:07;1.70;1.00
23671;DHT22;12012;51.998;7.614;2023-03-12T04:31:33;1.70;1.00
23671;DHT22;12012;51.998;7.614;2023-03-12T04:33:59;1.70;1.00
23671;DHT22;12012;51.998;7.614;2023-03-12T04:36:24;1.70;7.90
23671;DHT22;12012;51.998;7.614;2023-03-12T04:38:50;1.70;20.30
23671;DHT22;12012;51.998;7.614;2023-03-12T04:41:16;1.70;30.90
23671;DHT22;12012;51.998;7.614;2023-03-12T04:43:42;1.70;25.60
23671;DHT22;12012;51.998;7.614;2023-03-12T04:46:08;1.70;28.70
23671;DHT22;12012;51.998;7.614;2023-03-12T04:48:35;1.70;35.20
23671;DHT22;12012;51.998;7.614;2023-03-12T04:51:02;1.60;46.00
23671;DHT22;12012;51.998;7.614;2023-03-12T04:53:27;1.60;46.90
23671;DHT22;12012;51.998;7.614;2023-03-12T04:55:53;1.70;63.30
23671;DHT22;12012;51.998;7.614;2023-03-12T04:58:19;1.70;99.10
23671;DHT22;12012;51.998;7.614;2023-03-12T05:00:46;1.70;87.40
23671;DHT22;12012;51.998;7.614;2023-03-12T05:03:12;1.70;61.70
23671;DHT22;12012;51.998;7.614;2023-03-12T05:05:38;1.70;62.50
23671;DHT22;12012;51.998;7.614;2023-03-12T05:08:04;1.70;48.00
23671;DHT22;12012;51.998;7.614;2023-03-12T05:10:29;1.70;57.40
23671;DHT22;12012;51.998;7.614;2023-03-12T05:12:55;1.70;44.60
23671;DHT22;12012;51.998;7.614;2023-03-12T05:15:21;1.70;38.30
23671;DHT22;12012;51.998;7.614;2023-03-12T05:17:46;1.70;30.40
23671;DHT22;12012;51.998;7.614;2023-03-12T05:20:12;1.70;35.40
23671;DHT22;12012;51.998;7.614;2023-03-12T05:22:38;1.70;41.70
23671;DHT22;12012;51.998;7.614;2023-03-12T05:25:04;1.70;37.10
23671;DHT22;12012;51.998;7.614;2023-03-12T05:27:30;1.70;42.90
23671;DHT22;12012;51.998;7.614;2023-03-12T05:29:56;1.70;45.50
23671;DHT22;12012;51.998;7.614;2023-03-12T05:32:22;1.70;72.30
23671;DHT22;12012;51.998;7.614;2023-03-12T05:34:47;1.70;57.90
23671;DHT22;12012;51.998;7.614;2023-03-12T05:37:13;1.80;59.30
23671;DHT22;12012;51.998;7.614;2023-03-12T05:39:39;1.80;64.30
23671;DHT22;12012;51.998;7.614;2023-03-12T05:42:11;1.80;49.80
23671;DHT22;12012;51.998;7.614;2023-03-12T05:44:37;1.80;45.10
23671;DHT22;12012;51.998;7.614;2023-03-12T05:47:03;1.80;47.00
23671;DHT22;12012;51.998;7.614;2023-03-12T05:49:29;1.80;50.50
23671;DHT22;12012;51.998;7.614;2023-03-12T05:51:55;1.80;41.90
23671;DHT22;12012;51.998;7.614;2023-03-12T05:54:21;1.80;40.80
23671;DHT22;12012;51.998;7.614;2023-03-12T05:56:47;1.80;40.60
23671;DHT22;12012;51.998;7.614;2023-03-12T05:59:12;1.80;38.00
23671;DHT22;12012;51.998;7.614;2023-03-12T06:01:39;1.90;28.30
23671;DHT22;12012;51.998;7.614;2023-03-12T06:04:04;1.90;29.20
23671;DHT22;12012;51.998;7.614;2023-03-12T06:06:31;1.90;38.20
23671;DHT22;12012;51.998;7.614;2023-03-12T06:08:57;2.00;32.90
23671;DHT22;12012;51.998;7.614;2023-03-12T06:11:23;1.90;23.50
23671;DHT22;12012;51.998;7.614;2023-03-12T06:13:48;2.00;27.40
23671;DHT22;12012;51.998;7.614;2023-03-12T06:16:25;2.10;25.30
23671;DHT22;12012;51.998;7.614;2023-03-12T06:18:55;2.10;11.50
23671;DHT22;12012;51.998;7.614;2023-03-12T06:21:24;2.20;9.60
23671;DHT22;12012;51.998;7.614;2023-03-12T06:23:50;2.30;14.10
23671;DHT22;12012;51.998;7.614;2023-03-12T06:26:18;2.40;1.00
23671;DHT22;12012;51.998;7.614;2023-03-12T06:28:45;2.40;1.00
23671;DHT22;12012;51.998;7.614;2023-03-12T06:31:11;2.50;1.00
23671;DHT22;12012;51.998;7.614;2023-03-12T06:33:37;2.50;1.00
23671;DHT22;12012;51.998;7.614;2023-03-12T06:36:05;2.60;1.00
23671;DHT22;12012;51.998;7.614;2023-03-12T06:38:31;2.60;1.00
23671;DHT22;12012;51.998;7.614;2023-03-12T06:41:03;2.60;1.00
23671;DHT22;12012;51.998;7.614;2023-03-12T06:43:29;2.60;1.00
23671;DHT22;12012;51.998;7.614;2023-03-12T06:45:56;2.70;1.00
23671;DHT22;12012;51.998;7.614;2023-03-12T06:48:23;2.70;1.00
23671;DHT22;12012;51.998;7.614;2023-03-12T06:50:49;2.80;1.00
23671;DHT22;12012;51.998;7.614;2023-03-12T06:53:15;2.80;1.00
23671;DHT22;12012;51.998;7.614;2023-03-12T06:55:42;2.90;1.00
23671;DHT22;12012;51.998;7.614;2023-03-12T06:58:08;3.00;1.00
23671;DHT22;12012;51.998;7.614;2023-03-12T07:00:33;3.00;1.00
23671;DHT22;12012;51.998;7.614;2023-03-12T07:02:59;3.00;1.00
23671;DHT22;12012;51.998;7.614;2023-03-12T07:05:25;3.00;1.00
23671;DHT22;12012;51.998;7.614;2023-03-12T07:07:51;3.00;1.00
23671;DHT22;12012;51.998;7.614;2023-03-12T07:10:17;3.10;1.00
23671;DHT22;12012;51.998;7.614;2023-03-12T07:12:43;3.10;1.00
23671;DHT22;12012;51.998;7.614;2023-03-12T07:15:09;3.10;1.00
23671;DHT22;12012;51.998;7.614;2023-03-12T07:17:34;3.10;1.00
23671;DHT22;12012;51.998;7.614;2023-03-12T07:20:00;3.10;99.90
23671;DHT22;12012;51.998;7.614;2023-03-12T07:22:26;3.20;99.90
23671;DHT22;12012;51.998;7.614;2023-03-12T07:24:51;3.20;99.90
23671;DHT22;12012;51.998;7.614;2023-03-12T07:27:17;3.30;99.90
23671;DHT22;12012;51.998;7.614;2023-03-12T07:29:43;3.40;99.90
23671;DHT22;12012;51.998;7.614;2023-03-12T07:32:08;3.50;99.90
23671;DHT22;12012;51.998;7.614;2023-03-12T07:34:34;3.60;99.90
23671;DHT22;12012;51.998;7.614;2023-03-12T07:37:00;3.70;99.90
23671;DHT22;12012;51.998;7.614;2023-03-12T07:39:26;3.70;99.90
23671;DHT22;12012;51.998;7.614;2023-03-12T07:41:51;3.80;99.90
23671;DHT22;12012;51.998;7.614;2023-03-12T07:44:17;3.90;99.90
23671;DHT22;12012;51.998;7.614;2023-03-12T07:46:43;3.90;99.90
23671;DHT22;12012;51.998;7.614;2023-03-12T07:49:08;4.00;99.90
23671;DHT22;12012;51.998;7.614;2023-03-12T07:51:34;4.00;99.90
23671;DHT22;12012;51.998;7.614;2023-03-12T07:54:00;4.00;99.90
23671;DHT22;12012;51.998;7.614;2023-03-12T07:56:25;4.10;99.90
23671;DHT22;12012;51.998;7.614;2023-03-12T07:58:51;4.10;99.90
23671;DHT22;12012;51.998;7.614;2023-03-12T08:01:16;4.10;99.90
23671;DHT22;12012;51.998;7.614;2023-03-12T08:03:42;4.20;99.90
23671;DHT22;12012;51.998;7.614;2023-03-12T08:06:08;4.20;99.90
23671;DHT22;12012;51.998;7.614;2023-03-12T08:08:33;4.30;99.90
23671;DHT22;12012;51.998;7.614;2023-03-12T08:11:02;4.30;99.90
23671;DHT22;12012;51.998;7.614;2023-03-12T08:13:28;4.40;99.90
23671;DHT22;12012;51.998;7.614;2023-03-12T08:15:53;4.30;99.90
23671;DHT22;12012;51.998;7.614;2023-03-12T08:18:20;4.30;99.90
23671;DHT22;12012;51.998;7.614;2023-03-12T08:20:52;4.30;99.90
23671;DHT22;12012;51.998;7.614;2023-03-12T08:23:18;4.20;99.90
23671;DHT22;12012;51.998;7.614;2023-03-12T08:25:45;4.10;99.90
23671;DHT22;12012;51.998;7.614;2023-03-12T08:28:11;4.00;99.90
23671;DHT22;12012;51.998;7.614;2023-03-12T08:30:37;3.90;1.00
23671;DHT22;12012;51.998;7.614;2023-03-12T08:33:02;3.90;1.00
23671;DHT22;12012;51.998;7.614;2023-03-12T08:35:28;3.80;1.00
23671;DHT22;12012;51.998;7.614;2023-03-12T08:37:53;3.80;1.00
23671;DHT22;12012;51.998;7.614;2023-03-12T08:40:22;3.80;48.20
23671;DHT22;12012;51.998;7.614;2023-03-12T08:42:47;3.80;99.90
23671;DHT22;12012;51.998;7.614;2023-03-12T08:45:13;3.70;99.90
23671;DHT22;12012;51.998;7.614;2023-03-12T08:47:40;3.70;1.00
23671;DHT22;12012;51.998;7.614;2023-03-12T08:50:07;3.60;99.90
23671;DHT22;12012;51.998;7.614;2023-03-12T08:52:33;3.60;1.00
23671;DHT22;12012;51.998;7.614;2023-03-12T08:54:58;3.60;99.90
23671;DHT22;12012;51.998;7.614;2023-03-12T08:57:24;3.50;1.00
23671;DHT22;12012;51.998;7.614;2023-03-12T08:59:49;3.40;1.00
23671;DHT22;12012;51.998;7.614;2023-03-12T09:02:15;3.30;99.90
23671;DHT22;12012;51.998;7.614;2023-03-12T09:04:40;3.20;1.00
23671;DHT22;12012;51.998;7.614;2023-03-12T09:07:06;3.20;1.00
23671;DHT22;12012;51.998;7.614;2023-03-12T09:09:32;3.20;99.90
23671;DHT22;12012;51.998;7.614;2023-03-12T09:11:57;3.10;99.90
23671;DHT22;12012;51.998;7.614;2023-03-12T09:14:23;3.10;99.90
23671;DHT22;12012;51.998;7.614;2023-03-12T09:16:49;3.10;53.30
23671;DHT22;12012;51.998;7.614;2023-03-12T09:19:14;3.10;1.00
23671;DHT22;12012;51.998;7.614;2023-03-12T09:21:40;3.20;99.90
23671;DHT22;12012;51.998;7.614;2023-03-12T09:24:06;3.20;99.90
23671;DHT22;12012;51.998;7.614;2023-03-12T09:26:32;3.30;1.00
23671;DHT22;12012;51.998;7.614;2023-03-12T09:28:58;3.30;1.00
23671;DHT22;12012;51.998;7.614;2023-03-12T09:31:24;3.30;29.60
23671;DHT22;12012;51.998;7.614;2023-03-12T09:33:50;3.40;99.90
23671;DHT22;12012;51.998;7.614;2023-03-12T09:36:16;3.50;1.00
23671;DHT22;12012;51.998;7.614;2023-03-12T09:38:42;3.50;99.90
23671;DHT22;12012;51.998;7.614;2023-03-12T09:41:20;3.50;99.90
23671;DHT22;12012;51.998;7.614;2023-03-12T09:43:51;3.60;99.90
23671;DHT22;12012;51.998;7.614;2023-03-12T09:46:40;3.70;1.00
23671;DHT22;12012;51.998;7.614;2023-03-12T09:49:16;3.70;1.00
23671;DHT22;12012;51.998;7.614;2023-03-12T09:51:46;3.80;43.90
23671;DHT22;12012;51.998;7.614;2023-03-12T09:55:13;3.90;99.90
23671;DHT22;12012;51.998;7.614;2023-03-12T09:57:32;3.90;1.00
23671;DHT22;12012;51.998;7.614;2023-03-12T09:59:58;3.90;99.90
23671;DHT22;12012;51.998;7.614;2023-03-12T10:05:19;4.00;1.00
23671;DHT22;12012;51.998;7.614;2023-03-12T10:13:45;3.90;1.00
23671;DHT22;12012;51.998;7.614;2023-03-12T10:19:18;3.80;99.90
23671;DHT22;12012;51.998;7.614;2023-03-12T10:24:39;3.90;99.90
23671;DHT22;12012;51.998;7.614;2023-03-12T10:27:12;3.90;99.90
23671;DHT22;12012;51.998;7.614;2023-03-12T10:29:41;3.80;99.90
23671;DHT22;12012;51.998;7.614;2023-03-12T10:34:53;3.80;99.90
23671;DHT22;12012;51.998;7.614;2023-03-12T10:40:18;3.80;99.90
23671;DHT22;12012;51.998;7.614;2023-03-12T10:42:44;3.90;99.90
23671;DHT22;12012;51.998;7.614;2023-03-12T10:47:51;4.00;1.00
23671;DHT22;12012;51.998;7.614;2023-03-12T10:50:18;4.00;1.00
23671;DHT22;12012;51.998;7.614;2023-03-12T10:52:46;4.10;1.00
23671;DHT22;12012;51.998;7.614;2023-03-12T10:55:19;4.20;99.90
23671;DHT22;12012;51.998;7.614;2023-03-12T10:57:46;4.30;99.90
23671;DHT22;12012;51.998;7.614;2023-03-12T11:02:49;4.40;1.00
23671;DHT22;12012;51.998;7.614;2023-03-12T11:06:05;4.40;1.00
23671;DHT22;12012;51.998;7.614;2023-03-12T11:08:28;4.50;1.00
23671;DHT22;12012;51.998;7.614;2023-03-12T11:10:55;4.50;1.00
23671;DHT22;12012;51.998;7.614;2023-03-12T11:15:51;4.60;1.00
23671;DHT22;12012;51.998;7.614;2023-03-12T11:20:42;4.70;1.00
23671;DHT22;12012;51.998;7.614;2023-03-12T11:23:23;4.70;2.70
23671;DHT22;12012;51.998;7.614;2023-03-12T11:26:01;4.80;1.00
23671;DHT22;12012;51.998;7.614;2023-03-12T11:28:40;4.80;11.40
23671;DHT22;12012;51.998;7.614;2023-03-12T11:31:47;4.90;12.60
23671;DHT22;12012;51.998;7.614;2023-03-12T11:34:20;5.00;38.70
23671;DHT22;12012;51.998;7.614;2023-03-12T11:36:55;5.10;45.90
23671;DHT22;12012;51.998;7.614;2023-03-12T11:39:34;5.20;54.90
23671;DHT22;12012;51.998;7.614;2023-03-12T11:47:43;5.50;69.80
23671;DHT22;12012;51.998;7.614;2023-03-12T11:50:27;5.60;71.40
23671;DHT22;12012;51.998;7.614;2023-03-12T11:53:22;5.70;69.50
23671;DHT22;12012;51.998;7.614;2023-03-12T11:55:57;5.70;61.50
23671;DHT22;12012;51.998;7.614;2023-03-12T11:58:54;5.80;68.10
23671;DHT22;12012;51.998;7.614;2023-03-12T12:04:36;6.00;69.40
23671;DHT22;12012;51.998;7.614;2023-03-12T12:15:48;6.30;67.90
23671;DHT22;12012;51.998;7.614;2023-03-12T12:21:27;6.40;73.80
23671;DHT22;12012;51.998;7.614;2023-03-12T12:24:22;6.40;77.90
23671;DHT22;12012;51.998;7.614;2023-03-12T12:27:05;6.50;78.90
23671;DHT22;12012;51.998;7.614;2023-03-12T12:32:11;6.60;80.10
23671;DHT22;12012;51.998;7.614;2023-03-12T12:34:47;6.70;84.00
23671;DHT22;12012;51.998;7.614;2023-03-12T12:37:28;6.80;82.00
23671;DHT22;12012;51.998;7.614;2023-03-12T12:42:31;6.90;86.30
23671;DHT22;12012;51.998;7.614;2023-03-12T12:44:59;7.00;82.80
23671;DHT22;12012;51.998;7.614;2023-03-12T12:47:50;7.00;86.20
23671;DHT22;12012;51.998;7.614;2023-03-12T12:50:23;7.00;84.90
23671;DHT22;12012;51.998;7.614;2023-03-12T12:53:14;7.10;89.00
23671;DHT22;12012;51.998;7.614;2023-03-12T13:01:21;7.30;94.90
23671;DHT22;12012;51.998;7.614;2023-03-12T13:03:48;7.40;94.80
23671;DHT22;12012;51.998;7.614;2023-03-12T13:06:14;7.50;94.60
23671;DHT22;12012;51.998;7.614;2023-03-12T13:19:24;7.60;91.50
23671;DHT22;12012;51.998;7.614;2023-03-12T13:27:39;7.70;92.80
23671;DHT22;12012;51.998;7.614;2023-03-12T13:43:15;7.90;98.40
23671;DHT22;12012;51.998;7.614;2023-03-12T13:45:54;7.90;98.20
23671;DHT22;12012;51.998;7.614;2023-03-12T13:48:23;8.00;98.00
23671;DHT22;12012;51.998;7.614;2023-03-12T13:50:52;8.10;96.30
23671;DHT22;12012;51.998;7.614;2023-03-12T13:53:26;8.10;95.70
23671;DHT22;12012;51.998;7.614;2023-03-12T13:56:03;8.20;94.00
23671;DHT22;12012;51.998;7.614;2023-03-12T13:58:30;8.20;94.00
23671;DHT22;12012;51.998;7.614;2023-03-12T14:00:56;8.20;94.70
23671;DHT22;12012;51.998;7.614;2023-03-12T14:03:31;8.30;95.40
23671;DHT22;12012;51.998;7.614;2023-03-12T14:14:36;8.30;98.80
23671;DHT22;12012;51.998;7.614;2023-03-12T14:17:25;8.40;99.90
23671;DHT22;12012;51.998;7.614;2023-03-12T14:20:04;8.40;99.90
23671;DHT22;12012;51.998;7.614;2023-03-12T14:22:36;8.50;99.90
23671;DHT22;12012;51.998;7.614;2023-03-12T14:25:12;8.60;99.80
23671;DHT22;12012;51.998;7.614;2023-03-12T14:27:39;8.70;98.50
23671;DHT22;12012;51.998;7.614;2023-03-12T14:32:37;9.00;95.40
23671;DHT22;12012;51.998;7.614;2023-03-12T14:38:02;9.30;87.50
23671;DHT22;12012;51.998;7.614;2023-03-12T14:42:58;9.60;73.70
23671;DHT22;12012;51.998;7.614;2023-03-12T14:45:24;9.60;69.00
23671;DHT22;12012;51.998;7.614;2023-03-12T14:47:54;9.70;66.10
23671;DHT22;12012;51.998;7.614;2023-03-12T14:50:28;9.70;64.80
23671;DHT22;12012;51.998;7.614;2023-03-12T14:55:34;9.90;52.20
23671;DHT22;12012;51.998;7.614;2023-03-12T14:58:16;10.00;47.30
23671;DHT22;12012;51.998;7.614;2023-03-12T15:00:42;10.00;38.60
23671;DHT22;12012;51.998;7.614;2023-03-12T15:03:13;10.00;37.10
23671;DHT22;12012;51.998;7.614;2023-03-12T15:05:47;10.00;37.80
23671;DHT22;12012;51.998;7.614;2023-03-12T15:08:13;10.10;34.60
23671;DHT22;12012;51.998;7.614;2023-03-12T15:10:47;10.10;29.60
23671;DHT22;12012;51.998;7.614;2023-03-12T15:13:13;10.20;28.10
23671;DHT22;12012;51.998;7.614;2023-03-12T15:15:41;10.30;21.00
23671;DHT22;12012;51.998;7.614;2023-03-12T15:18:16;10.30;11.90
23671;DHT22;12012;51.998;7.614;2023-03-12T15:20:43;10.40;5.90
23671;DHT22;12012;51.998;7.614;2023-03-12T15:23:11;10.50;1.00
23671;DHT22;12012;51.998;7.614;2023-03-12T15:25:37;10.60;1.00
23671;DHT22;12012;51.998;7.614;2023-03-12T15:30:36;10.50;1.00
23671;DHT22;12012;51.998;7.614;2023-03-12T15:35:42;10.50;1.00
23671;DHT22;12012;51.998;7.614;2023-03-12T15:38:15;10.50;1.00
23671;DHT22;12012;51.998;7.614;2023-03-12T15:40:47;10.60;1.00
23671;DHT22;12012;51.998;7.614;2023-03-12T15:43:18;10.80;1.00
23671;DHT22;12012;51.998;7.614;2023-03-12T15:45:45;11.00;1.00
23671;DHT22;12012;51.998;7.614;2023-03-12T15:50:41;11.10;99.90
23671;DHT22;12012;51.998;7.614;2023-03-12T15:55:36;11.10;1.00
23671;DHT22;12012;51.998;7.614;2023-03-12T15:58:21;11.20;99.90
23671;DHT22;12012;51.998;7.614;2023-03-12T16:00:47;11.10;99.90
23671;DHT22;12012;51.998;7.614;2023-03-12T16:03:18;11.10;1.00
23671;DHT22;12012;51.998;7.614;2023-03-12T16:05:44;11.10;99.90
23671;DHT22;12012;51.998;7.614;2023-03-12T16:10:46;10.90;1.00
23671;DHT22;12012;51.998;7.614;2023-03-12T16:13:18;10.90;35.30
23671;DHT22;12012;51.998;7.614;2023-03-12T16:15:44;10.80;99.90
23671;DHT22;12012;51.998;7.614;2023-03-12T16:18:12;10.70;1.00
23671;DHT22;12012;51.998;7.614;2023-03-12T16:20:38;10.70;99.90
23671;DHT22;12012;51.998;7.614;2023-03-12T16:23:04;10.60;99.90
23671;DHT22;12012;51.998;7.614;2023-03-12T16:25:29;10.60;99.90
23671;DHT22;12012;51.998;7.614;2023-03-12T16:27:57;10.50;99.90
23671;DHT22;12012;51.998;7.614;2023-03-12T16:30:30;10.60;99.90
23671;DHT22;12012;51.998;7.614;2023-03-12T16:32:57;10.50;99.90
23671;DHT22;12012;51.998;7.614;2023-03-12T16:35:23;10.50;54.90
23671;DHT22;12012;51.998;7.614;2023-03-12T16:37:49;10.50;48.80
23671;DHT22;12012;51.998;7.614;2023-03-12T16:40:18;10.40;99.90
23671;DHT22;12012;51.998;7.614;2023-03-12T16:42:49;10.40;99.90
23671;DHT22;12012;51.998;7.614;2023-03-12T16:45:16;10.40;1.00
23671;DHT22;12012;51.998;7.614;2023-03-12T16:47:42;10.40;99.90
23671;DHT22;12012;51.998;7.614;2023-03-12T16:50:26;10.30;99.90
23671;DHT22;12012;51.998;7.614;2023-03-12T16:52:52;10.20;99.90
23671;DHT22;12012;51.998;7.614;2023-03-12T16:55:20;10.20;1.00
23671;DHT22;12012;51.998;7.614;2023-03-12T16:57:49;10.20;1.00
23671;DHT22;12012;51.998;7.614;2023-03-12T17:00:19;10.10;1.00
23671;DHT22;12012;51.998;7.614;2023-03-12T17:02:45;10.10;4.90
23671;DHT22;12012;51.998;7.614;2023-03-12T17:05:12;10.00;32.00
23671;DHT22;12012;51.998;7.614;2023-03-12T17:07:38;10.00;99.90
23671;DHT22;12012;51.998;7.614;2023-03-12T17:10:04;10.00;99.90
23671;DHT22;12012;51.998;7.614;2023-03-12T17:12:32;10.00;99.90
23671;DHT22;12012;51.998;7.614;2023-03-12T17:14:58;9.90;1.00
23671;DHT22;12012;51.998;7.614;2023-03-12T17:17:24;9.80;1.00
23671;DHT22;12012;51.998;7.614;2023-03-12T17:19:50;9.80;99.90
23671;DHT22;12012;51.998;7.614;2023-03-12T17:22:17;9.80;99.90
23671;DHT22;12012;51.998;7.614;2023-03-12T17:24:43;9.80;99.90
23671;DHT22;12012;51.998;7.614;2023-03-12T17:27:09;9.70;1.00
23671;DHT22;12012;51.998;7.614;2023-03-12T17:29:35;9.70;1.00
23671;DHT22;12012;51.998;7.614;2023-03-12T17:32:00;9.70;6.20
23671;DHT22;12012;51.998;7.614;2023-03-12T17:34:26;9.60;1.00
23671;DHT22;12012;51.998;7.614;2023-03-12T17:36:51;9.60;66.40
23671;DHT22;12012;51.998;7.614;2023-03-12T17:39:17;9.60;93.60
23671;DHT22;12012;51.998;7.614;2023-03-12T17:41:42;9.50;99.90
23671;DHT22;12012;51.998;7.614;2023-03-12T17:44:08;9.50;99.90
23671;DHT22;12012;51.998;7.614;2023-03-12T17:46:35;9.50;99.90
23671;DHT22;12012;51.998;7.614;2023-03-12T17:49:02;9.40;99.90
23671;DHT22;12012;51.998;7.614;2023-03-12T17:51:28;9.40;1.00
23671;DHT22;12012;51.998;7.614;2023-03-12T17:53:54;9.40;1.00
23671;DHT22;12012;51.998;7.614;2023-03-12T17:56:19;9.40;1.00
23671;DHT22;12012;51.998;7.614;2023-03-12T17:58:45;9.40;99.90
23671;DHT22;12012;51.998;7.614;2023-03-12T18:01:11;9.40;99.90
23671;DHT22;12012;51.998;7.614;2023-03-12T18:03:37;9.40;99.90
23671;DHT22;12012;51.998;7.614;2023-03-12T18:06:02;9.40;99.90
23671;DHT22;12012;51.998;7.614;2023-03-12T18:08:28;9.40;99.90